Terminal Aerodrome Forecast
Issued by NWS

Home | Current Version | Previous Version | Text Only | Print | Product List | Glossary On
Versions: 1 2 3 4 5 6 7 8 9 10 11 12 13 14 15
000
FTUS41 KRNK 222322
TAFBCB
TAF
KBCB 222322Z 2300/2324 23005KT P6SM -SHRA OVC080
     FM230300 VRB03KT P6SM OVC025
      TEMPO 2305/2308 4SM -SHRA OVC015
     FM231000 21004KT P6SM VCSH OVC012
     FM231200 21005KT P6SM OVC025
     FM231900 24011G22KT P6SM BKN050=

USA.gov is the U.S. government's official web portal to all federal, state and local government web resources and services.